sensor_id;sensor_type;location;lat;lon;timestamp;P1;P2;P0
77692;PMS5003;66984;47.404;18.836;2024-01-30T00:00:32;44.75;37.00;23.00
77692;PMS5003;66984;47.404;18.836;2024-01-30T00:01:35;43.25;35.50;23.00
77692;PMS5003;66984;47.404;18.836;2024-01-30T00:02:38;44.50;36.25;23.00
77692;PMS5003;66984;47.404;18.836;2024-01-30T00:03:41;44.50;36.00;23.00
77692;PMS5003;66984;47.404;18.836;2024-01-30T00:04:44;45.00;36.50;23.00
77692;PMS5003;66984;47.404;18.836;2024-01-30T00:05:47;45.25;37.00;23.00
77692;PMS5003;66984;47.404;18.836;2024-01-30T00:06:50;45.00;36.00;23.00
77692;PMS5003;66984;47.404;18.836;2024-01-30T00:07:53;46.50;37.50;23.50
77692;PMS5003;66984;47.404;18.836;2024-01-30T00:08:56;46.00;37.00;23.00
77692;PMS5003;66984;47.404;18.836;2024-01-30T00:09:59;46.00;38.00;23.00
77692;PMS5003;66984;47.404;18.836;2024-01-30T00:11:02;45.00;36.00;23.50
77692;PMS5003;66984;47.404;18.836;2024-01-30T00:12:06;44.50;36.00;23.00
77692;PMS5003;66984;47.404;18.836;2024-01-30T00:13:09;45.00;36.00;23.00
77692;PMS5003;66984;47.404;18.836;2024-01-30T00:14:12;42.50;35.00;23.00
77692;PMS5003;66984;47.404;18.836;2024-01-30T00:15:14;44.50;35.50;23.00
77692;PMS5003;66984;47.404;18.836;2024-01-30T00:16:20;44.50;36.50;23.00
77692;PMS5003;66984;47.404;18.836;2024-01-30T00:17:31;43.50;35.00;23.00
77692;PMS5003;66984;47.404;18.836;2024-01-30T00:18:34;44.50;35.50;22.00
77692;PMS5003;66984;47.404;18.836;2024-01-30T00:19:37;45.00;35.50;22.00
77692;PMS5003;66984;47.404;18.836;2024-01-30T00:20:40;45.00;36.00;23.00
77692;PMS5003;66984;47.404;18.836;2024-01-30T00:21:43;44.50;35.50;23.00
77692;PMS5003;66984;47.404;18.836;2024-01-30T00:22:46;42.50;34.00;22.00
77692;PMS5003;66984;47.404;18.836;2024-01-30T00:23:49;41.75;34.50;21.00
77692;PMS5003;66984;47.404;18.836;2024-01-30T00:24:52;44.50;35.50;23.00
77692;PMS5003;66984;47.404;18.836;2024-01-30T00:25:56;44.00;35.00;22.00
77692;PMS5003;66984;47.404;18.836;2024-01-30T00:26:59;44.00;35.00;23.00
77692;PMS5003;66984;47.404;18.836;2024-01-30T00:28:02;43.75;35.00;23.00
77692;PMS5003;66984;47.404;18.836;2024-01-30T00:29:05;43.00;35.00;22.00
77692;PMS5003;66984;47.404;18.836;2024-01-30T00:30:08;43.00;35.00;22.00
77692;PMS5003;66984;47.404;18.836;2024-01-30T00:31:11;44.00;35.00;22.00
77692;PMS5003;66984;47.404;18.836;2024-01-30T00:32:15;44.00;35.00;22.00
77692;PMS5003;66984;47.404;18.836;2024-01-30T00:33:18;44.00;35.00;23.00
77692;PMS5003;66984;47.404;18.836;2024-01-30T00:34:23;42.00;34.00;22.00
77692;PMS5003;66984;47.404;18.836;2024-01-30T00:35:26;41.00;34.25;21.50
77692;PMS5003;66984;47.404;18.836;2024-01-30T00:36:29;43.50;35.00;22.00
77692;PMS5003;66984;47.404;18.836;2024-01-30T00:37:32;43.00;35.00;22.25
77692;PMS5003;66984;47.404;18.836;2024-01-30T00:38:35;43.25;35.00;22.00
77692;PMS5003;66984;47.404;18.836;2024-01-30T00:39:38;44.25;35.00;22.00
77692;PMS5003;66984;47.404;18.836;2024-01-30T00:40:41;43.00;35.00;22.00
77692;PMS5003;66984;47.404;18.836;2024-01-30T00:41:44;43.00;35.00;23.00
77692;PMS5003;66984;47.404;18.836;2024-01-30T00:42:47;43.00;34.50;22.00
77692;PMS5003;66984;47.404;18.836;2024-01-30T00:43:50;44.00;35.00;22.00
77692;PMS5003;66984;47.404;18.836;2024-01-30T00:44:52;43.50;35.00;22.00
77692;PMS5003;66984;47.404;18.836;2024-01-30T00:45:55;43.00;35.00;22.00
77692;PMS5003;66984;47.404;18.836;2024-01-30T00:46:58;43.00;35.00;22.25
77692;PMS5003;66984;47.404;18.836;2024-01-30T00:48:01;44.00;35.00;23.00
77692;PMS5003;66984;47.404;18.836;2024-01-30T00:49:04;43.00;35.00;23.00
77692;PMS5003;66984;47.404;18.836;2024-01-30T00:50:07;43.00;35.00;23.00
77692;PMS5003;66984;47.404;18.836;2024-01-30T00:51:10;43.00;35.00;22.00
77692;PMS5003;66984;47.404;18.836;2024-01-30T00:52:13;42.00;34.00;22.00
77692;PMS5003;66984;47.404;18.836;2024-01-30T00:53:16;43.00;34.00;22.00
77692;PMS5003;66984;47.404;18.836;2024-01-30T00:54:19;41.00;34.00;21.00
77692;PMS5003;66984;47.404;18.836;2024-01-30T00:55:22;43.25;35.00;23.00
77692;PMS5003;66984;47.404;18.836;2024-01-30T00:56:25;41.00;34.00;22.00
77692;PMS5003;66984;47.404;18.836;2024-01-30T00:57:28;41.75;34.50;22.00
77692;PMS5003;66984;47.404;18.836;2024-01-30T00:58:31;40.25;33.00;20.00
77692;PMS5003;66984;47.404;18.836;2024-01-30T00:59:34;41.25;33.75;21.00
77692;PMS5003;66984;47.404;18.836;2024-01-30T01:00:37;41.00;34.00;20.25
77692;PMS5003;66984;47.404;18.836;2024-01-30T01:01:40;38.50;32.00;20.50
77692;PMS5003;66984;47.404;18.836;2024-01-30T01:02:43;40.50;32.00;20.00
77692;PMS5003;66984;47.404;18.836;2024-01-30T01:03:46;40.50;33.00;20.00
77692;PMS5003;66984;47.404;18.836;2024-01-30T01:04:49;39.00;32.00;20.00
77692;PMS5003;66984;47.404;18.836;2024-01-30T01:05:52;39.00;32.00;20.00
77692;PMS5003;66984;47.404;18.836;2024-01-30T01:06:55;40.50;32.00;20.00
77692;PMS5003;66984;47.404;18.836;2024-01-30T01:07:58;40.50;33.00;20.00
77692;PMS5003;66984;47.404;18.836;2024-01-30T01:09:01;40.00;33.25;21.00
77692;PMS5003;66984;47.404;18.836;2024-01-30T01:10:06;40.50;32.00;20.00
77692;PMS5003;66984;47.404;18.836;2024-01-30T01:11:09;40.50;32.25;20.00
77692;PMS5003;66984;47.404;18.836;2024-01-30T01:12:12;40.50;33.00;20.00
77692;PMS5003;66984;47.404;18.836;2024-01-30T01:13:14;41.00;34.00;22.00
77692;PMS5003;66984;47.404;18.836;2024-01-30T01:14:17;40.00;33.00;21.00
77692;PMS5003;66984;47.404;18.836;2024-01-30T01:15:20;42.00;34.50;21.00
77692;PMS5003;66984;47.404;18.836;2024-01-30T01:16:23;41.75;32.50;20.00
77692;PMS5003;66984;47.404;18.836;2024-01-30T01:17:27;40.50;32.75;21.00
77692;PMS5003;66984;47.404;18.836;2024-01-30T01:18:30;42.75;34.50;23.00
77692;PMS5003;66984;47.404;18.836;2024-01-30T01:19:33;42.00;34.00;21.00
77692;PMS5003;66984;47.404;18.836;2024-01-30T01:20:36;42.00;34.00;21.25
77692;PMS5003;66984;47.404;18.836;2024-01-30T01:21:38;42.50;34.50;22.00
77692;PMS5003;66984;47.404;18.836;2024-01-30T01:22:41;42.25;34.00;22.00
77692;PMS5003;66984;47.404;18.836;2024-01-30T01:23:44;42.00;34.50;22.00
77692;PMS5003;66984;47.404;18.836;2024-01-30T01:24:47;42.00;34.00;21.00
77692;PMS5003;66984;47.404;18.836;2024-01-30T01:25:50;41.50;34.00;22.00
77692;PMS5003;66984;47.404;18.836;2024-01-30T01:26:53;43.25;34.50;22.00
77692;PMS5003;66984;47.404;18.836;2024-01-30T01:27:57;41.00;34.00;21.75
77692;PMS5003;66984;47.404;18.836;2024-01-30T01:29:04;41.50;34.00;22.00
77692;PMS5003;66984;47.404;18.836;2024-01-30T01:30:12;42.50;34.00;22.00
77692;PMS5003;66984;47.404;18.836;2024-01-30T01:31:21;42.00;34.00;22.00
77692;PMS5003;66984;47.404;18.836;2024-01-30T01:32:27;41.00;33.00;21.00
77692;PMS5003;66984;47.404;18.836;2024-01-30T01:33:30;41.00;34.00;22.00
77692;PMS5003;66984;47.404;18.836;2024-01-30T01:34:35;42.50;34.00;22.00
77692;PMS5003;66984;47.404;18.836;2024-01-30T01:35:38;42.00;34.00;22.00
77692;PMS5003;66984;47.404;18.836;2024-01-30T01:36:42;42.00;34.00;22.00
77692;PMS5003;66984;47.404;18.836;2024-01-30T01:37:44;42.50;34.00;21.00
77692;PMS5003;66984;47.404;18.836;2024-01-30T01:38:48;42.00;34.00;21.50
77692;PMS5003;66984;47.404;18.836;2024-01-30T01:39:52;42.00;34.00;21.00
77692;PMS5003;66984;47.404;18.836;2024-01-30T01:40:55;42.50;34.00;21.00
77692;PMS5003;66984;47.404;18.836;2024-01-30T01:41:58;42.00;34.00;21.00
77692;PMS5003;66984;47.404;18.836;2024-01-30T01:43:03;42.00;34.00;21.00
77692;PMS5003;66984;47.404;18.836;2024-01-30T01:44:06;41.00;34.00;21.75
77692;PMS5003;66984;47.404;18.836;2024-01-30T01:45:09;41.00;34.00;22.00
77692;PMS5003;66984;47.404;18.836;2024-01-30T01:46:12;42.25;34.00;21.00
77692;PMS5003;66984;47.404;18.836;2024-01-30T01:47:15;39.50;32.50;21.00
77692;PMS5003;66984;47.404;18.836;2024-01-30T01:48:20;40.00;32.00;20.00
77692;PMS5003;66984;47.404;18.836;2024-01-30T01:49:25;40.00;33.00;20.00
77692;PMS5003;66984;47.404;18.836;2024-01-30T01:50:30;39.00;32.00;20.00
77692;PMS5003;66984;47.404;18.836;2024-01-30T01:51:34;39.00;32.00;21.00
77692;PMS5003;66984;47.404;18.836;2024-01-30T01:52:39;38.00;32.00;20.00
77692;PMS5003;66984;47.404;18.836;2024-01-30T01:53:44;39.00;31.00;20.00
77692;PMS5003;66984;47.404;18.836;2024-01-30T01:54:46;38.00;32.00;20.00
77692;PMS5003;66984;47.404;18.836;2024-01-30T01:55:50;39.00;32.00;20.00
77692;PMS5003;66984;47.404;18.836;2024-01-30T01:56:57;37.00;31.25;20.00
77692;PMS5003;66984;47.404;18.836;2024-01-30T01:57:59;37.00;30.00;20.00
77692;PMS5003;66984;47.404;18.836;2024-01-30T01:59:04;37.50;30.25;20.00
77692;PMS5003;66984;47.404;18.836;2024-01-30T02:00:10;37.00;30.00;20.00
77692;PMS5003;66984;47.404;18.836;2024-01-30T02:01:14;36.50;30.00;19.50
77692;PMS5003;66984;47.404;18.836;2024-01-30T02:02:19;37.00;31.00;19.50
77692;PMS5003;66984;47.404;18.836;2024-01-30T02:03:23;37.25;31.00;19.50
77692;PMS5003;66984;47.404;18.836;2024-01-30T02:04:26;37.00;31.00;19.00
77692;PMS5003;66984;47.404;18.836;2024-01-30T02:05:29;37.00;31.00;20.00
77692;PMS5003;66984;47.404;18.836;2024-01-30T02:06:32;37.00;31.00;20.00
77692;PMS5003;66984;47.404;18.836;2024-01-30T02:07:36;37.00;31.00;20.00
77692;PMS5003;66984;47.404;18.836;2024-01-30T02:08:40;37.00;32.00;20.00
77692;PMS5003;66984;47.404;18.836;2024-01-30T02:09:44;37.00;31.00;20.00
77692;PMS5003;66984;47.404;18.836;2024-01-30T02:10:47;39.00;32.00;20.00
77692;PMS5003;66984;47.404;18.836;2024-01-30T02:11:50;37.00;31.00;19.50
77692;PMS5003;66984;47.404;18.836;2024-01-30T02:12:53;38.00;31.50;20.00
77692;PMS5003;66984;47.404;18.836;2024-01-30T02:13:56;38.00;31.00;20.00
77692;PMS5003;66984;47.404;18.836;2024-01-30T02:14:59;37.00;31.00;19.50
77692;PMS5003;66984;47.404;18.836;2024-01-30T02:16:02;37.00;31.00;20.00
77692;PMS5003;66984;47.404;18.836;2024-01-30T02:17:05;39.00;31.50;20.00
77692;PMS5003;66984;47.404;18.836;2024-01-30T02:18:08;37.00;30.00;20.00
77692;PMS5003;66984;47.404;18.836;2024-01-30T02:19:11;36.00;31.00;19.50
77692;PMS5003;66984;47.404;18.836;2024-01-30T02:20:14;37.00;31.00;19.00
77692;PMS5003;66984;47.404;18.836;2024-01-30T02:21:18;37.25;31.00;19.00
77692;PMS5003;66984;47.404;18.836;2024-01-30T02:22:22;36.00;31.00;19.50
77692;PMS5003;66984;47.404;18.836;2024-01-30T02:23:26;35.25;29.00;19.00
77692;PMS5003;66984;47.404;18.836;2024-01-30T02:24:29;36.50;30.00;19.00
77692;PMS5003;66984;47.404;18.836;2024-01-30T02:25:35;35.00;29.00;19.00
77692;PMS5003;66984;47.404;18.836;2024-01-30T02:26:41;34.00;29.00;19.00
77692;PMS5003;66984;47.404;18.836;2024-01-30T02:27:44;34.00;28.75;19.00
77692;PMS5003;66984;47.404;18.836;2024-01-30T02:28:47;35.00;29.00;19.00
77692;PMS5003;66984;47.404;18.836;2024-01-30T02:29:49;34.00;28.00;19.00
77692;PMS5003;66984;47.404;18.836;2024-01-30T02:30:52;34.00;28.00;18.00
77692;PMS5003;66984;47.404;18.836;2024-01-30T02:31:55;35.50;30.00;19.00
77692;PMS5003;66984;47.404;18.836;2024-01-30T02:32:58;34.25;28.00;19.00
77692;PMS5003;66984;47.404;18.836;2024-01-30T02:34:01;36.50;29.00;18.25
77692;PMS5003;66984;47.404;18.836;2024-01-30T02:35:04;36.00;29.00;19.00
77692;PMS5003;66984;47.404;18.836;2024-01-30T02:36:07;36.00;29.00;19.00
77692;PMS5003;66984;47.404;18.836;2024-01-30T02:37:12;36.00;29.00;19.00
77692;PMS5003;66984;47.404;18.836;2024-01-30T02:38:15;36.25;30.25;19.50
77692;PMS5003;66984;47.404;18.836;2024-01-30T02:39:19;36.50;31.00;19.50
77692;PMS5003;66984;47.404;18.836;2024-01-30T02:40:22;36.50;30.00;19.50
77692;PMS5003;66984;47.404;18.836;2024-01-30T02:41:25;36.00;29.00;19.00
77692;PMS5003;66984;47.404;18.836;2024-01-30T02:42:28;36.50;29.00;19.00
77692;PMS5003;66984;47.404;18.836;2024-01-30T02:43:31;36.25;29.00;18.25
77692;PMS5003;66984;47.404;18.836;2024-01-30T02:44:34;36.50;29.75;19.00
77692;PMS5003;66984;47.404;18.836;2024-01-30T02:45:36;37.00;31.00;19.00
77692;PMS5003;66984;47.404;18.836;2024-01-30T02:46:39;35.00;29.00;18.25
77692;PMS5003;66984;47.404;18.836;2024-01-30T02:47:42;35.00;29.50;19.00
77692;PMS5003;66984;47.404;18.836;2024-01-30T02:48:45;36.00;30.00;19.50
77692;PMS5003;66984;47.404;18.836;2024-01-30T02:49:48;36.50;30.00;19.50
77692;PMS5003;66984;47.404;18.836;2024-01-30T02:50:55;36.00;29.75;19.00
77692;PMS5003;66984;47.404;18.836;2024-01-30T02:52:00;34.25;29.50;19.50
77692;PMS5003;66984;47.404;18.836;2024-01-30T02:53:03;36.00;30.00;19.50
77692;PMS5003;66984;47.404;18.836;2024-01-30T02:54:07;34.00;29.00;19.00
77692;PMS5003;66984;47.404;18.836;2024-01-30T02:55:12;35.00;29.00;18.75
77692;PMS5003;66984;47.404;18.836;2024-01-30T02:56:16;34.25;28.50;18.00
77692;PMS5003;66984;47.404;18.836;2024-01-30T02:57:18;35.75;29.00;18.50
77692;PMS5003;66984;47.404;18.836;2024-01-30T02:58:21;35.75;28.00;18.75
77692;PMS5003;66984;47.404;18.836;2024-01-30T02:59:24;36.00;28.00;17.75
77692;PMS5003;66984;47.404;18.836;2024-01-30T03:00:27;36.00;28.00;17.00
77692;PMS5003;66984;47.404;18.836;2024-01-30T03:01:32;34.00;28.00;17.00
77692;PMS5003;66984;47.404;18.836;2024-01-30T03:02:35;32.00;27.00;16.50
77692;PMS5003;66984;47.404;18.836;2024-01-30T03:03:39;32.00;27.00;16.00
77692;PMS5003;66984;47.404;18.836;2024-01-30T03:04:43;30.50;27.00;17.00
77692;PMS5003;66984;47.404;18.836;2024-01-30T03:05:46;33.00;28.00;17.00
77692;PMS5003;66984;47.404;18.836;2024-01-30T03:06:49;31.00;26.00;16.50
77692;PMS5003;66984;47.404;18.836;2024-01-30T03:07:52;30.50;26.00;16.50
77692;PMS5003;66984;47.404;18.836;2024-01-30T03:08:55;33.00;25.00;16.50
77692;PMS5003;66984;47.404;18.836;2024-01-30T03:09:57;33.50;26.00;16.50
77692;PMS5003;66984;47.404;18.836;2024-01-30T03:11:00;33.00;26.00;17.00
77692;PMS5003;66984;47.404;18.836;2024-01-30T03:12:04;30.00;26.00;16.50
77692;PMS5003;66984;47.404;18.836;2024-01-30T03:13:11;31.00;26.00;16.50
77692;PMS5003;66984;47.404;18.836;2024-01-30T03:14:16;31.75;26.00;16.00
77692;PMS5003;66984;47.404;18.836;2024-01-30T03:15:19;31.00;26.75;16.50
77692;PMS5003;66984;47.404;18.836;2024-01-30T03:16:22;29.00;26.00;17.00
77692;PMS5003;66984;47.404;18.836;2024-01-30T03:17:25;28.00;25.00;16.50
77692;PMS5003;66984;47.404;18.836;2024-01-30T03:18:28;30.75;25.00;16.50
77692;PMS5003;66984;47.404;18.836;2024-01-30T03:19:31;31.00;26.00;17.00
77692;PMS5003;66984;47.404;18.836;2024-01-30T03:20:34;33.00;27.00;16.50
77692;PMS5003;66984;47.404;18.836;2024-01-30T03:21:37;32.00;27.00;16.50
77692;PMS5003;66984;47.404;18.836;2024-01-30T03:22:40;32.00;26.00;16.50
77692;PMS5003;66984;47.404;18.836;2024-01-30T03:23:42;29.50;26.00;16.50
77692;PMS5003;66984;47.404;18.836;2024-01-30T03:24:46;29.00;26.00;16.50
77692;PMS5003;66984;47.404;18.836;2024-01-30T03:25:48;31.00;26.00;17.00
77692;PMS5003;66984;47.404;18.836;2024-01-30T03:26:51;32.00;26.25;17.00
77692;PMS5003;66984;47.404;18.836;2024-01-30T03:27:54;30.75;26.00;16.50
77692;PMS5003;66984;47.404;18.836;2024-01-30T03:28:57;29.00;26.00;17.00
77692;PMS5003;66984;47.404;18.836;2024-01-30T03:30:00;29.50;25.75;16.50
77692;PMS5003;66984;47.404;18.836;2024-01-30T03:31:03;30.75;26.75;17.00
77692;PMS5003;66984;47.404;18.836;2024-01-30T03:32:06;30.00;25.00;17.00
77692;PMS5003;66984;47.404;18.836;2024-01-30T03:33:09;29.75;25.00;16.00
77692;PMS5003;66984;47.404;18.836;2024-01-30T03:34:13;31.25;26.00;16.00
77692;PMS5003;66984;47.404;18.836;2024-01-30T03:35:16;33.25;27.50;17.00
77692;PMS5003;66984;47.404;18.836;2024-01-30T03:36:19;33.00;28.00;16.50
77692;PMS5003;66984;47.404;18.836;2024-01-30T03:37:22;32.00;26.00;16.50
77692;PMS5003;66984;47.404;18.836;2024-01-30T03:38:25;31.00;26.00;17.00
77692;PMS5003;66984;47.404;18.836;2024-01-30T03:39:28;31.00;26.00;16.50
77692;PMS5003;66984;47.404;18.836;2024-01-30T03:40:31;30.50;26.00;16.50
77692;PMS5003;66984;47.404;18.836;2024-01-30T03:41:34;30.50;25.00;17.00
77692;PMS5003;66984;47.404;18.836;2024-01-30T03:42:37;30.50;26.25;17.00
77692;PMS5003;66984;47.404;18.836;2024-01-30T03:43:40;30.50;26.00;16.50
77692;PMS5003;66984;47.404;18.836;2024-01-30T03:44:43;29.25;26.00;16.50
77692;PMS5003;66984;47.404;18.836;2024-01-30T03:45:45;31.25;26.00;16.50
77692;PMS5003;66984;47.404;18.836;2024-01-30T03:46:48;30.75;26.50;16.50
77692;PMS5003;66984;47.404;18.836;2024-01-30T03:47:51;31.00;26.50;17.00
77692;PMS5003;66984;47.404;18.836;2024-01-30T03:48:56;29.00;25.00;16.50
77692;PMS5003;66984;47.404;18.836;2024-01-30T03:49:59;30.25;25.00;16.50
77692;PMS5003;66984;47.404;18.836;2024-01-30T03:51:02;31.00;25.75;17.00
77692;PMS5003;66984;47.404;18.836;2024-01-30T03:52:05;33.00;28.00;17.00
77692;PMS5003;66984;47.404;18.836;2024-01-30T03:53:08;33.00;26.00;17.00
77692;PMS5003;66984;47.404;18.836;2024-01-30T03:54:11;33.25;28.00;17.00
77692;PMS5003;66984;47.404;18.836;2024-01-30T03:55:14;32.00;27.00;17.00
77692;PMS5003;66984;47.404;18.836;2024-01-30T03:56:17;33.00;27.00;17.00
77692;PMS5003;66984;47.404;18.836;2024-01-30T03:57:20;34.00;27.00;16.50
77692;PMS5003;66984;47.404;18.836;2024-01-30T03:58:25;33.50;27.50;17.00
77692;PMS5003;66984;47.404;18.836;2024-01-30T03:59:28;35.50;29.00;18.25
77692;PMS5003;66984;47.404;18.836;2024-01-30T04:00:31;37.25;30.50;19.00
77692;PMS5003;66984;47.404;18.836;2024-01-30T04:01:34;37.75;30.50;20.00
77692;PMS5003;66984;47.404;18.836;2024-01-30T04:02:37;37.75;30.50;20.00
77692;PMS5003;66984;47.404;18.836;2024-01-30T04:03:40;37.50;31.00;19.50
77692;PMS5003;66984;47.404;18.836;2024-01-30T04:04:43;38.00;31.00;19.50
77692;PMS5003;66984;47.404;18.836;2024-01-30T04:05:46;36.00;29.00;19.00
77692;PMS5003;66984;47.404;18.836;2024-01-30T04:06:49;36.50;30.00;19.50
77692;PMS5003;66984;47.404;18.836;2024-01-30T04:07:52;36.50;31.00;19.50
77692;PMS5003;66984;47.404;18.836;2024-01-30T04:08:57;37.00;30.50;19.00
77692;PMS5003;66984;47.404;18.836;2024-01-30T04:10:00;36.50;30.50;18.00
77692;PMS5003;66984;47.404;18.836;2024-01-30T04:11:05;36.00;29.00;19.00
77692;PMS5003;66984;47.404;18.836;2024-01-30T04:12:09;34.00;27.50;17.00
77692;PMS5003;66984;47.404;18.836;2024-01-30T04:13:11;34.00;28.00;17.00
77692;PMS5003;66984;47.404;18.836;2024-01-30T04:14:14;33.00;26.25;17.00
77692;PMS5003;66984;47.404;18.836;2024-01-30T04:15:17;34.00;28.00;17.00
77692;PMS5003;66984;47.404;18.836;2024-01-30T04:16:20;33.00;28.00;17.00
77692;PMS5003;66984;47.404;18.836;2024-01-30T04:17:24;33.00;28.00;16.50
77692;PMS5003;66984;47.404;18.836;2024-01-30T04:18:30;30.50;27.00;16.50
77692;PMS5003;66984;47.404;18.836;2024-01-30T04:19:36;31.00;26.50;16.50
77692;PMS5003;66984;47.404;18.836;2024-01-30T04:20:40;31.75;26.50;16.50
77692;PMS5003;66984;47.404;18.836;2024-01-30T04:21:44;32.00;28.00;16.50
77692;PMS5003;66984;47.404;18.836;2024-01-30T04:22:47;32.00;26.00;16.50
77692;PMS5003;66984;47.404;18.836;2024-01-30T04:23:53;31.50;26.00;16.50
77692;PMS5003;66984;47.404;18.836;2024-01-30T04:24:57;31.00;25.00;17.00
77692;PMS5003;66984;47.404;18.836;2024-01-30T04:26:00;30.50;26.00;16.50
77692;PMS5003;66984;47.404;18.836;2024-01-30T04:27:03;32.50;26.50;16.50
77692;PMS5003;66984;47.404;18.836;2024-01-30T04:28:06;33.50;26.00;16.50
77692;PMS5003;66984;47.404;18.836;2024-01-30T04:29:09;33.00;26.00;17.00
77692;PMS5003;66984;47.404;18.836;2024-01-30T04:30:12;32.00;26.00;16.50
77692;PMS5003;66984;47.404;18.836;2024-01-30T04:31:15;32.50;26.00;16.50
77692;PMS5003;66984;47.404;18.836;2024-01-30T04:32:18;31.00;26.00;16.00
77692;PMS5003;66984;47.404;18.836;2024-01-30T04:33:20;31.00;26.00;16.00
77692;PMS5003;66984;47.404;18.836;2024-01-30T04:34:23;30.00;25.00;16.00
77692;PMS5003;66984;47.404;18.836;2024-01-30T04:35:26;31.00;25.75;16.00
77692;PMS5003;66984;47.404;18.836;2024-01-30T04:36:29;32.00;28.00;16.50
77692;PMS5003;66984;47.404;18.836;2024-01-30T04:37:32;30.50;26.00;17.00
77692;PMS5003;66984;47.404;18.836;2024-01-30T04:38:35;30.50;26.00;16.50
77692;PMS5003;66984;47.404;18.836;2024-01-30T04:39:38;30.50;26.50;17.00
77692;PMS5003;66984;47.404;18.836;2024-01-30T04:40:41;31.00;27.00;16.50
77692;PMS5003;66984;47.404;18.836;2024-01-30T04:41:44;31.00;26.00;16.50
77692;PMS5003;66984;47.404;18.836;2024-01-30T04:42:46;31.50;26.00;16.00
77692;PMS5003;66984;47.404;18.836;2024-01-30T04:43:49;33.00;26.50;16.00
77692;PMS5003;66984;47.404;18.836;2024-01-30T04:44:52;32.00;27.00;16.50
77692;PMS5003;66984;47.404;18.836;2024-01-30T04:45:55;31.00;25.50;16.50
77692;PMS5003;66984;47.404;18.836;2024-01-30T04:46:58;30.25;26.00;16.50
77692;PMS5003;66984;47.404;18.836;2024-01-30T04:48:03;30.50;25.00;16.50
77692;PMS5003;66984;47.404;18.836;2024-01-30T04:49:07;33.75;27.75;16.50
77692;PMS5003;66984;47.404;18.836;2024-01-30T04:50:13;35.75;28.00;18.00
77692;PMS5003;66984;47.404;18.836;2024-01-30T04:51:16;33.50;28.00;17.50
77692;PMS5003;66984;47.404;18.836;2024-01-30T04:52:18;34.00;28.25;18.75
77692;PMS5003;66984;47.404;18.836;2024-01-30T04:53:22;36.00;30.00;19.00
77692;PMS5003;66984;47.404;18.836;2024-01-30T04:54:24;36.50;30.00;17.00
77692;PMS5003;66984;47.404;18.836;2024-01-30T04:55:28;36.00;30.00;18.00
77692;PMS5003;66984;47.404;18.836;2024-01-30T04:56:31;36.50;29.00;18.00
77692;PMS5003;66984;47.404;18.836;2024-01-30T04:57:34;36.50;28.75;19.00
77692;PMS5003;66984;47.404;18.836;2024-01-30T04:58:38;34.00;28.25;17.00
77692;PMS5003;66984;47.404;18.836;2024-01-30T04:59:41;34.00;28.00;17.00
77692;PMS5003;66984;47.404;18.836;2024-01-30T05:00:44;33.00;27.00;17.00
77692;PMS5003;66984;47.404;18.836;2024-01-30T05:01:48;31.00;26.00;16.50
77692;PMS5003;66984;47.404;18.836;2024-01-30T05:02:51;30.50;26.00;16.50
77692;PMS5003;66984;47.404;18.836;2024-01-30T05:03:54;31.00;27.75;16.50
77692;PMS5003;66984;47.404;18.836;2024-01-30T05:04:57;33.50;27.50;16.50
77692;PMS5003;66984;47.404;18.836;2024-01-30T05:06:00;33.50;28.00;17.00
77692;PMS5003;66984;47.404;18.836;2024-01-30T05:07:03;32.50;26.75;17.00
77692;PMS5003;66984;47.404;18.836;2024-01-30T05:08:06;33.00;27.00;17.00
77692;PMS5003;66984;47.404;18.836;2024-01-30T05:09:09;33.00;28.00;18.00
77692;PMS5003;66984;47.404;18.836;2024-01-30T05:10:12;33.00;28.00;17.00
77692;PMS5003;66984;47.404;18.836;2024-01-30T05:11:16;33.00;27.50;16.50
77692;PMS5003;66984;47.404;18.836;2024-01-30T05:12:18;33.25;27.50;17.00
77692;PMS5003;66984;47.404;18.836;2024-01-30T05:13:21;33.00;26.00;17.00
77692;PMS5003;66984;47.404;18.836;2024-01-30T05:14:24;31.50;27.00;17.00
77692;PMS5003;66984;47.404;18.836;2024-01-30T05:15:27;32.75;26.00;16.50
77692;PMS5003;66984;47.404;18.836;2024-01-30T05:16:30;33.00;27.50;16.50
77692;PMS5003;66984;47.404;18.836;2024-01-30T05:17:33;33.50;28.00;17.00
77692;PMS5003;66984;47.404;18.836;2024-01-30T05:18:36;33.50;27.00;17.00
77692;PMS5003;66984;47.404;18.836;2024-01-30T05:19:39;31.00;26.00;16.50
77692;PMS5003;66984;47.404;18.836;2024-01-30T05:20:43;31.50;26.00;16.50
77692;PMS5003;66984;47.404;18.836;2024-01-30T05:21:46;32.00;27.50;16.25
77692;PMS5003;66984;47.404;18.836;2024-01-30T05:22:49;33.00;28.00;17.25
77692;PMS5003;66984;47.404;18.836;2024-01-30T05:23:51;31.50;27.50;17.75
77692;PMS5003;66984;47.404;18.836;2024-01-30T05:24:54;33.25;28.00;17.00
77692;PMS5003;66984;47.404;18.836;2024-01-30T05:25:57;33.25;27.50;16.50
77692;PMS5003;66984;47.404;18.836;2024-01-30T05:27:04;33.00;27.00;17.00
77692;PMS5003;66984;47.404;18.836;2024-01-30T05:28:08;33.25;28.00;17.00
77692;PMS5003;66984;47.404;18.836;2024-01-30T05:29:11;34.00;28.50;17.50
77692;PMS5003;66984;47.404;18.836;2024-01-30T05:30:14;36.50;28.00;17.00
77692;PMS5003;66984;47.404;18.836;2024-01-30T05:31:16;34.00;28.00;18.00
77692;PMS5003;66984;47.404;18.836;2024-01-30T05:32:19;33.00;28.00;17.00
77692;PMS5003;66984;47.404;18.836;2024-01-30T05:33:22;33.00;27.50;16.50
77692;PMS5003;66984;47.404;18.836;2024-01-30T05:34:25;33.25;28.00;16.00
77692;PMS5003;66984;47.404;18.836;2024-01-30T05:35:28;36.00;28.00;16.75
77692;PMS5003;66984;47.404;18.836;2024-01-30T05:36:31;35.50;28.25;17.25
77692;PMS5003;66984;47.404;18.836;2024-01-30T05:37:33;35.00;28.00;17.50
77692;PMS5003;66984;47.404;18.836;2024-01-30T05:38:37;34.00;28.00;18.00
77692;PMS5003;66984;47.404;18.836;2024-01-30T05:39:39;36.00;29.25;18.00
77692;PMS5003;66984;47.404;18.836;2024-01-30T05:40:42;36.00;30.00;18.00
77692;PMS5003;66984;47.404;18.836;2024-01-30T05:41:45;34.25;29.00;18.00
77692;PMS5003;66984;47.404;18.836;2024-01-30T05:42:48;36.00;29.00;18.25
77692;PMS5003;66984;47.404;18.836;2024-01-30T05:43:54;38.50;32.00;19.00
77692;PMS5003;66984;47.404;18.836;2024-01-30T05:44:57;38.50;32.00;19.75
77692;PMS5003;66984;47.404;18.836;2024-01-30T05:46:00;38.00;32.00;20.00
77692;PMS5003;66984;47.404;18.836;2024-01-30T05:47:03;38.75;32.00;19.00
77692;PMS5003;66984;47.404;18.836;2024-01-30T05:48:06;38.75;32.00;19.00
77692;PMS5003;66984;47.404;18.836;2024-01-30T05:49:09;38.75;30.50;19.75
77692;PMS5003;66984;47.404;18.836;2024-01-30T05:50:12;37.00;31.00;20.00